Time;durP1;ratioP1;P1;durP2;ratioP2;P2;SDS_P1;SDS_P2;PMS_P1;PMS_P2;Temp;Humidity;BMP_temperature;BMP_pressure;BME280_temperature;BME280_humidity;BME280_pressure;Samples;Min_cycle;Max_cycle;Signal;HPM_P1;HPM_P2
2021/06/29 00:01:08;;;;;;;11.73;4.90;;;;;;;22.70;53.17;92491.59;2050817;70;20146;-77
2021/06/29 00:03:35;;;;;;;7.53;5.28;;;;;;;22.56;53.60;92486.41;2049869;70;20209;-76
2021/06/29 00:06:03;;;;;;;12.80;5.20;;;;;;;22.66;51.97;92496.56;2050618;70;20154;-76
2021/06/29 00:08:30;;;;;;;9.32;5.60;;;;;;;22.56;51.91;92488.56;2049647;70;20973;-79
2021/06/29 00:10:56;;;;;;;8.63;5.03;;;;;;;22.43;52.99;92478.34;2050698;70;20158;-76
2021/06/29 00:13:23;;;;;;;14.07;5.65;;;;;;;22.40;54.80;92477.59;2050603;70;20698;-78
2021/06/29 00:15:50;;;;;;;10.80;5.20;;;;;;;22.20;55.34;92474.44;2050809;70;20198;-77
2021/06/29 00:18:17;;;;;;;11.35;5.40;;;;;;;21.92;57.10;92475.47;2050616;70;20154;-76
2021/06/29 00:20:43;;;;;;;8.00;4.90;;;;;;;22.27;54.86;92470.97;2050267;70;20162;-77
2021/06/29 00:23:10;;;;;;;8.23;4.75;;;;;;;22.30;55.22;92483.91;2050690;70;20146;-75
2021/06/29 00:25:37;;;;;;;9.70;5.63;;;;;;;21.95;56.14;92487.69;2049816;70;20495;-78
2021/06/29 00:28:03;;;;;;;7.80;5.38;;;;;;;21.98;55.29;92489.88;2050073;70;20166;-77
2021/06/29 00:30:30;;;;;;;10.02;5.68;;;;;;;22.23;53.33;92487.41;2051013;70;20256;-76
2021/06/29 00:32:56;;;;;;;10.25;5.55;;;;;;;22.20;54.27;92491.66;2051227;70;20645;-76
2021/06/29 00:35:22;;;;;;;11.02;5.72;;;;;;;22.24;53.63;92501.03;2051523;70;20231;-76
2021/06/29 00:37:48;;;;;;;12.70;5.72;;;;;;;21.93;54.52;92496.25;2051037;69;20186;-76
2021/06/29 00:40:14;;;;;;;13.40;6.00;;;;;;;21.83;55.70;92491.09;2050852;69;20142;-75
2021/06/29 00:42:41;;;;;;;11.60;5.30;;;;;;;21.91;54.41;92491.22;2050960;70;20161;-76
2021/06/29 00:45:08;;;;;;;9.45;5.00;;;;;;;21.59;57.51;92508.59;2050856;70;20614;-77
2021/06/29 00:47:34;;;;;;;13.20;5.25;;;;;;;21.77;55.46;92511.78;2050740;69;20220;-76
2021/06/29 00:50:00;;;;;;;11.20;5.25;;;;;;;21.80;55.84;92513.22;2051050;70;21064;-76
2021/06/29 00:52:27;;;;;;;12.00;5.65;;;;;;;21.90;54.64;92517.69;2050463;70;20208;-75
2021/06/29 00:54:53;;;;;;;9.98;6.22;;;;;;;21.76;55.62;92512.44;2051251;70;20565;-74
2021/06/29 00:57:19;;;;;;;13.52;5.93;;;;;;;21.68;55.57;92512.34;2050968;70;20135;-77
2021/06/29 00:59:45;;;;;;;11.77;5.78;;;;;;;21.40;57.44;92516.16;2051050;70;20142;-76
2021/06/29 01:02:11;;;;;;;11.15;5.50;;;;;;;21.50;56.75;92501.28;2050978;70;20143;-77
2021/06/29 01:04:38;;;;;;;9.75;5.90;;;;;;;21.49;55.47;92517.03;2050969;69;20154;-77
2021/06/29 01:07:05;;;;;;;12.68;5.60;;;;;;;21.67;55.46;92513.72;2050847;70;20260;-74
2021/06/29 01:09:32;;;;;;;9.35;5.47;;;;;;;21.67;55.31;92517.34;2050811;69;20295;-76
2021/06/29 01:11:57;;;;;;;11.80;5.90;;;;;;;21.61;55.14;92522.22;2050737;70;20276;-76
2021/06/29 01:14:23;;;;;;;12.95;5.30;;;;;;;21.67;55.97;92522.31;2051186;70;20245;-77
2021/06/29 01:16:49;;;;;;;12.75;6.10;;;;;;;21.36;57.34;92526.81;2050951;70;20158;-76
2021/06/29 01:19:19;;;;;;;12.23;6.00;;;;;;;21.30;57.84;92531.00;2050198;69;20253;-75
2021/06/29 01:21:46;;;;;;;12.85;6.18;;;;;;;21.36;57.06;92526.81;2050574;70;20166;-75
2021/06/29 01:24:18;;;;;;;10.18;6.20;;;;;;;21.35;57.73;92528.94;2050984;70;20184;-75
2021/06/29 01:26:59;;;;;;;10.95;6.28;;;;;;;21.40;56.42;92526.88;2050008;70;20234;-75
2021/06/29 01:29:39;;;;;;;13.55;5.72;;;;;;;21.26;57.83;92530.91;2049743;70;20266;-75
2021/06/29 01:32:05;;;;;;;11.18;6.25;;;;;;;21.14;57.85;92529.97;2050675;70;20277;-75
2021/06/29 01:34:34;;;;;;;8.63;5.95;;;;;;;21.22;58.80;92533.69;2050670;70;20144;-76
2021/06/29 01:36:59;;;;;;;7.75;5.82;;;;;;;21.22;57.99;92536.56;2051219;70;20611;-76
2021/06/29 01:39:25;;;;;;;12.60;6.25;;;;;;;21.08;58.11;92538.44;2050858;70;20174;-78
2021/06/29 01:41:51;;;;;;;8.40;6.35;;;;;;;21.11;58.97;92531.31;2050898;70;20173;-74
2021/06/29 01:44:24;;;;;;;10.25;5.47;;;;;;;21.20;56.70;92539.38;2051074;70;20162;-77
2021/06/29 01:46:52;;;;;;;7.97;5.68;;;;;;;21.13;58.37;92546.41;2050949;69;20507;-76
2021/06/29 01:49:26;;;;;;;14.48;6.18;;;;;;;21.14;56.84;92550.00;2051076;70;20165;-77
2021/06/29 01:51:53;;;;;;;11.07;6.47;;;;;;;21.06;57.34;92544.81;2050881;69;20162;-76
2021/06/29 01:54:20;;;;;;;10.18;5.93;;;;;;;21.11;57.08;92549.22;2050878;69;20589;-76
2021/06/29 01:56:46;;;;;;;7.35;6.00;;;;;;;20.98;58.19;92544.66;2050900;69;20492;-76
2021/06/29 01:59:14;;;;;;;14.00;6.38;;;;;;;20.94;59.05;92551.06;2050909;70;20162;-76
2021/06/29 02:01:41;;;;;;;9.40;5.78;;;;;;;21.03;58.32;92546.22;2050874;69;20233;-76
2021/06/29 02:04:07;;;;;;;13.68;6.10;;;;;;;21.02;59.78;92553.34;2050136;70;20142;-75
2021/06/29 02:06:33;;;;;;;10.18;6.03;;;;;;;20.96;58.69;92548.22;2051100;69;20157;-74
2021/06/29 02:08:58;;;;;;;9.07;5.80;;;;;;;20.95;59.65;92552.50;2051462;70;20143;-74
2021/06/29 02:11:24;;;;;;;10.70;5.78;;;;;;;20.83;57.86;92540.06;2051580;70;20139;-75
2021/06/29 02:13:49;;;;;;;10.27;5.70;;;;;;;20.92;58.55;92542.41;2051778;69;20249;-76
2021/06/29 02:16:15;;;;;;;14.15;6.22;;;;;;;20.87;58.71;92538.03;2051610;70;20138;-74
2021/06/29 02:18:41;;;;;;;11.05;6.85;;;;;;;20.81;59.44;92532.19;2051384;69;20185;-76
2021/06/29 02:21:07;;;;;;;7.68;5.22;;;;;;;20.94;57.13;92533.88;2051452;70;20142;-76
2021/06/29 02:23:33;;;;;;;6.70;5.45;;;;;;;21.01;57.79;92543.31;2051558;70;20234;-75
2021/06/29 02:25:59;;;;;;;11.90;6.57;;;;;;;20.95;58.54;92529.59;2051428;70;20233;-74
2021/06/29 02:28:26;;;;;;;10.23;5.88;;;;;;;20.90;60.63;92530.94;2051386;70;20147;-75
2021/06/29 02:30:53;;;;;;;10.48;6.32;;;;;;;20.92;60.30;92539.56;2050871;70;20707;-73
2021/06/29 02:33:18;;;;;;;11.63;6.30;;;;;;;21.03;58.54;92529.78;2051195;70;20154;-76
2021/06/29 02:35:44;;;;;;;10.57;6.28;;;;;;;20.87;57.77;92531.56;2051008;70;20233;-73
2021/06/29 02:38:10;;;;;;;8.88;6.40;;;;;;;20.93;59.09;92540.28;2050919;70;20182;-73
2021/06/29 02:40:36;;;;;;;8.60;5.80;;;;;;;20.98;57.63;92542.56;2051041;70;20176;-74
2021/06/29 02:43:02;;;;;;;12.18;5.82;;;;;;;20.99;59.30;92543.28;2050780;70;20591;-75
2021/06/29 02:45:28;;;;;;;8.80;5.45;;;;;;;21.11;57.34;92543.50;2051277;69;20166;-74
2021/06/29 02:47:57;;;;;;;11.52;6.13;;;;;;;20.94;60.28;92533.88;2050897;70;20158;-76
2021/06/29 02:50:24;;;;;;;9.93;6.65;;;;;;;20.49;61.43;92538.69;2050870;70;20703;-75
2021/06/29 02:52:50;;;;;;;11.40;6.38;;;;;;;20.79;58.94;92540.72;2051058;70;20146;-75
2021/06/29 02:55:16;;;;;;;8.48;6.15;;;;;;;20.96;59.73;92545.34;2050638;70;20526;-74
2021/06/29 02:57:43;;;;;;;9.65;6.40;;;;;;;21.16;58.65;92539.28;2051095;70;20142;-74
2021/06/29 03:00:15;;;;;;;11.43;6.45;;;;;;;20.99;60.04;92546.84;2050969;70;20193;-73
2021/06/29 03:02:41;;;;;;;14.43;5.85;;;;;;;20.96;61.51;92538.91;2051241;69;20151;-73
2021/06/29 03:05:07;;;;;;;9.60;5.30;;;;;;;20.99;61.00;92541.13;2051470;70;20154;-74
2021/06/29 03:07:33;;;;;;;9.50;5.63;;;;;;;21.13;57.25;92543.53;2051323;69;20591;-73
2021/06/29 03:09:59;;;;;;;6.93;4.93;;;;;;;21.21;57.55;92545.81;2051350;70;20238;-75
2021/06/29 03:12:25;;;;;;;7.82;4.10;;;;;;;21.29;59.58;92543.13;2051363;70;20241;-76
2021/06/29 03:14:56;;;;;;;6.28;3.50;;;;;;;21.37;57.55;92548.31;2051463;70;20146;-75
2021/06/29 03:17:22;;;;;;;6.68;2.92;;;;;;;21.38;55.77;92550.47;2051202;70;20127;-74
2021/06/29 03:19:47;;;;;;;3.75;3.05;;;;;;;21.54;55.24;92542.19;2051298;70;20161;-74
2021/06/29 03:22:13;;;;;;;4.75;2.90;;;;;;;21.55;54.31;92552.22;2051349;70;20157;-74
2021/06/29 03:24:38;;;;;;;4.88;2.72;;;;;;;21.64;55.41;92549.50;2051310;70;20154;-73
2021/06/29 03:27:05;;;;;;;6.70;3.17;;;;;;;21.49;57.84;92554.97;2051244;70;20302;-73
2021/06/29 03:29:31;;;;;;;3.58;2.60;;;;;;;21.45;56.84;92560.63;2051271;70;20157;-73
2021/06/29 03:31:56;;;;;;;3.40;2.50;;;;;;;21.54;55.94;92578.69;2051228;70;20146;-74
2021/06/29 03:34:22;;;;;;;6.38;2.30;;;;;;;21.52;55.18;92570.03;2051151;70;20170;-73
2021/06/29 03:36:48;;;;;;;2.50;2.20;;;;;;;21.52;53.62;92552.88;2051392;70;20598;-74
2021/06/29 03:39:13;;;;;;;2.20;2.00;;;;;;;21.56;54.85;92535.75;2051343;70;20308;-73
2021/06/29 03:41:39;;;;;;;7.43;2.20;;;;;;;21.62;53.70;92538.00;2051353;70;20515;-74
2021/06/29 03:44:05;;;;;;;6.10;2.42;;;;;;;21.60;55.16;92558.75;2050814;70;20145;-73
2021/06/29 03:46:31;;;;;;;4.95;2.20;;;;;;;21.38;59.75;92567.66;2051360;70;20146;-77
2021/06/29 03:48:56;;;;;;;3.55;2.17;;;;;;;21.33;60.25;92589.03;2051223;70;20166;-76
2021/06/29 03:51:22;;;;;;;2.88;2.40;;;;;;;21.45;56.85;92577.09;2051334;70;20209;-77
2021/06/29 03:53:48;;;;;;;4.72;2.40;;;;;;;21.40;59.64;92567.69;2051379;70;20162;-73
2021/06/29 03:56:30;;;;;;;4.07;2.30;;;;;;;21.39;58.86;92574.81;2050802;70;20178;-73
2021/06/29 03:59:00;;;;;;;8.73;2.35;;;;;;;21.50;59.53;92592.94;2051323;70;20606;-73
2021/06/29 04:01:27;;;;;;;4.78;2.38;;;;;;;21.38;60.39;92607.72;2051636;70;20150;-73
2021/06/29 04:03:56;;;;;;;3.55;2.58;;;;;;;21.26;62.94;92605.34;2051066;70;20193;-73
2021/06/29 04:06:40;;;;;;;4.20;2.30;;;;;;;21.25;61.42;92617.47;2051907;70;20530;-73
2021/06/29 04:09:10;;;;;;;5.55;2.50;;;;;;;21.13;63.71;92617.97;2051787;69;20143;-74
2021/06/29 04:11:36;;;;;;;7.00;2.85;;;;;;;21.18;61.96;92624.50;2051918;69;20213;-73
2021/06/29 04:14:05;;;;;;;3.83;2.58;;;;;;;21.33;60.71;92631.97;2051837;69;20163;-74
2021/06/29 04:16:30;;;;;;;4.35;2.17;;;;;;;21.20;63.40;92627.38;2051772;69;20159;-73
2021/06/29 04:18:56;;;;;;;2.95;2.30;;;;;;;21.15;62.48;92638.03;2051667;70;20268;-73
2021/06/29 04:21:22;;;;;;;6.10;2.35;;;;;;;21.11;63.00;92640.81;2051713;69;20146;-74
2021/06/29 04:23:47;;;;;;;3.80;2.47;;;;;;;21.00;64.21;92644.88;2051758;70;20614;-76
2021/06/29 04:26:18;;;;;;;4.28;2.55;;;;;;;21.17;60.29;92640.94;2051741;70;20162;-75
2021/06/29 04:28:45;;;;;;;4.43;2.20;;;;;;;21.15;61.87;92635.16;2051203;70;20143;-75
2021/06/29 04:31:11;;;;;;;6.07;2.15;;;;;;;21.13;61.68;92625.81;2051844;70;20149;-74
2021/06/29 04:33:37;;;;;;;6.28;2.60;;;;;;;21.12;61.87;92627.22;2051550;69;20134;-74
2021/06/29 04:36:03;;;;;;;2.35;2.15;;;;;;;21.01;62.53;92624.16;2051794;69;20239;-74
2021/06/29 04:38:29;;;;;;;3.95;2.10;;;;;;;21.08;62.83;92627.88;2051616;70;20531;-74
2021/06/29 04:40:54;;;;;;;4.45;2.20;;;;;;;21.15;61.54;92623.00;2051603;70;20139;-73
2021/06/29 04:43:20;;;;;;;3.85;2.20;;;;;;;20.93;63.92;92621.13;2051571;70;20134;-74
2021/06/29 04:45:46;;;;;;;3.20;2.42;;;;;;;20.93;64.03;92629.69;2051674;70;20153;-74
2021/06/29 04:48:11;;;;;;;5.43;2.20;;;;;;;20.84;65.10;92636.66;2051465;70;20237;-74
2021/06/29 04:50:38;;;;;;;4.45;2.30;;;;;;;20.78;65.96;92637.25;2051635;69;20308;-74
2021/06/29 04:53:04;;;;;;;3.33;2.45;;;;;;;20.92;61.73;92651.13;2051581;69;20146;-73
2021/06/29 04:55:32;;;;;;;4.20;2.63;;;;;;;21.02;59.89;92664.94;2051682;69;20214;-74
2021/06/29 04:57:58;;;;;;;2.95;2.38;;;;;;;21.17;61.15;92655.25;2050991;70;20189;-74
2021/06/29 05:00:24;;;;;;;2.47;2.28;;;;;;;21.08;62.25;92661.50;2051750;70;20141;-73
2021/06/29 05:02:49;;;;;;;5.07;2.80;;;;;;;20.95;62.36;92663.38;2051554;70;20145;-73
2021/06/29 05:05:17;;;;;;;4.55;2.78;;;;;;;21.00;62.00;92654.19;2051529;70;20252;-74
2021/06/29 05:07:43;;;;;;;4.00;3.10;;;;;;;20.93;64.54;92651.88;2051514;69;20135;-74
2021/06/29 05:10:09;;;;;;;3.60;2.63;;;;;;;20.83;63.59;92660.94;2051515;70;20149;-74
2021/06/29 05:12:36;;;;;;;4.10;2.97;;;;;;;20.72;66.32;92667.88;2051509;70;20152;-74
2021/06/29 05:15:03;;;;;;;6.72;2.70;;;;;;;20.83;64.24;92665.94;2050958;70;20614;-74
2021/06/29 05:17:28;;;;;;;6.13;2.60;;;;;;;20.91;65.64;92669.00;2051403;69;20610;-74
2021/06/29 05:19:54;;;;;;;4.13;2.90;;;;;;;20.98;62.05;92653.41;2051519;70;20232;-74
2021/06/29 05:22:19;;;;;;;3.88;2.92;;;;;;;21.09;64.44;92649.34;2051501;70;20142;-75
2021/06/29 05:24:45;;;;;;;3.15;2.80;;;;;;;21.07;61.53;92637.84;2051530;70;20146;-74
2021/06/29 05:27:10;;;;;;;5.15;3.10;;;;;;;20.86;65.73;92639.56;2051503;69;20177;-74
2021/06/29 05:29:36;;;;;;;5.00;2.90;;;;;;;21.05;63.94;92638.53;2050942;70;20180;-74
2021/06/29 05:32:02;;;;;;;4.63;2.80;;;;;;;21.22;63.92;92625.31;2051506;69;20602;-74
2021/06/29 05:34:28;;;;;;;3.30;2.60;;;;;;;21.36;64.44;92647.78;2051356;69;20177;-74
2021/06/29 05:36:53;;;;;;;4.63;2.03;;;;;;;21.55;61.74;92652.44;2051469;70;20241;-75
2021/06/29 05:39:19;;;;;;;2.63;1.80;;;;;;;21.62;62.58;92653.28;2051446;70;20150;-74
2021/06/29 05:41:45;;;;;;;3.08;2.00;;;;;;;21.64;63.44;92659.06;2051482;70;20606;-75
2021/06/29 05:44:11;;;;;;;2.55;2.13;;;;;;;21.62;62.21;92661.16;2051507;70;20256;-74
2021/06/29 05:46:36;;;;;;;8.00;2.67;;;;;;;21.67;60.55;92651.97;2051453;70;20239;-74
2021/06/29 05:49:08;;;;;;;18.52;4.15;;;;;;;21.56;63.16;92650.31;2050780;70;20150;-74
2021/06/29 05:51:33;;;;;;;25.20;4.78;;;;;;;21.74;59.53;92650.66;2051553;69;20147;-74
2021/06/29 05:53:59;;;;;;;4.60;3.20;;;;;;;21.57;62.43;92655.34;2051398;70;20622;-75
2021/06/29 05:56:25;;;;;;;4.63;2.67;;;;;;;21.80;60.99;92661.50;2051467;69;20178;-75
2021/06/29 05:58:50;;;;;;;27.70;5.10;;;;;;;21.93;61.04;92659.59;2051469;69;20150;-74
2021/06/29 06:01:16;;;;;;;10.75;3.03;;;;;;;22.06;57.72;92649.78;2051547;70;20154;-75
2021/06/29 06:03:42;;;;;;;4.03;2.63;;;;;;;22.30;58.32;92673.16;2051327;69;20237;-75
2021/06/29 06:06:07;;;;;;;3.50;2.50;;;;;;;22.19;57.26;92665.09;2051547;69;20172;-74
2021/06/29 06:08:33;;;;;;;6.72;2.50;;;;;;;22.35;55.87;92664.63;2051357;70;20150;-74
2021/06/29 06:10:58;;;;;;;6.28;2.40;;;;;;;22.39;55.83;92658.97;2051555;69;20249;-75
2021/06/29 06:13:24;;;;;;;3.88;2.65;;;;;;;22.00;58.36;92659.00;2051440;70;20518;-74
2021/06/29 06:15:52;;;;;;;6.32;2.50;;;;;;;21.56;60.07;92650.31;2051393;70;20135;-74
2021/06/29 06:18:17;;;;;;;5.25;2.80;;;;;;;21.60;60.09;92653.25;2050807;70;20170;-74
2021/06/29 06:20:43;;;;;;;4.45;2.90;;;;;;;21.66;59.75;92650.50;2051438;70;20209;-74
2021/06/29 06:23:09;;;;;;;5.25;2.70;;;;;;;21.80;59.45;92647.16;2051394;70;20154;-74
2021/06/29 06:25:35;;;;;;;2.97;2.50;;;;;;;22.09;59.33;92645.56;2051532;70;20212;-74
2021/06/29 06:28:01;;;;;;;7.10;2.67;;;;;;;22.19;56.68;92642.16;2050859;70;20145;-75
2021/06/29 06:30:27;;;;;;;6.35;3.10;;;;;;;22.05;58.33;92648.34;2050836;70;20165;-74
2021/06/29 06:32:52;;;;;;;4.05;2.70;;;;;;;21.46;58.35;92642.25;2051162;70;20586;-75
2021/06/29 06:35:18;;;;;;;4.32;2.40;;;;;;;22.13;56.22;92648.53;2051385;70;20233;-74
2021/06/29 06:37:44;;;;;;;6.97;2.60;;;;;;;22.58;54.75;92644.19;2051383;70;20170;-74
2021/06/29 06:40:10;;;;;;;3.55;2.20;;;;;;;22.86;53.69;92639.56;2051434;70;20150;-75
2021/06/29 06:42:36;;;;;;;2.33;2.00;;;;;;;23.00;54.38;92637.69;2051324;70;20237;-74
2021/06/29 06:45:04;;;;;;;5.55;1.83;;;;;;;22.94;53.61;92628.97;2051345;70;20661;-74
2021/06/29 06:47:29;;;;;;;1.80;1.45;;;;;;;22.91;52.31;92639.00;2051313;70;20154;-74
2021/06/29 06:49:55;;;;;;;3.10;1.30;;;;;;;22.38;51.87;92631.72;2051374;70;20173;-74
2021/06/29 06:52:21;;;;;;;2.65;1.45;;;;;;;22.12;51.63;92620.53;2051333;70;20154;-76
2021/06/29 06:54:46;;;;;;;2.78;1.15;;;;;;;22.04;51.52;92615.38;2051475;70;20558;-76
2021/06/29 06:57:12;;;;;;;2.28;1.30;;;;;;;22.40;51.01;92620.97;2051529;70;20583;-77
2021/06/29 06:59:38;;;;;;;2.47;1.20;;;;;;;22.65;50.65;92612.75;2051372;69;20165;-76
2021/06/29 07:02:05;;;;;;;1.92;1.50;;;;;;;22.56;51.23;92615.50;2051334;69;20596;-74
2021/06/29 07:04:30;;;;;;;3.15;1.60;;;;;;;22.82;51.11;92620.19;2051245;69;20625;-74
2021/06/29 07:06:56;;;;;;;1.63;1.20;;;;;;;22.73;50.49;92612.88;2051393;70;20142;-74
2021/06/29 07:09:22;;;;;;;3.10;1.30;;;;;;;22.82;50.12;92609.41;2051394;70;20182;-72
2021/06/29 07:11:48;;;;;;;1.13;1.02;;;;;;;22.58;49.98;92600.44;2051377;70;20214;-74
2021/06/29 07:14:14;;;;;;;2.45;1.10;;;;;;;22.90;49.65;92599.47;2050780;70;20154;-74
2021/06/29 07:16:40;;;;;;;1.80;1.10;;;;;;;23.09;48.61;92592.56;2051329;69;20205;-73
2021/06/29 07:19:05;;;;;;;1.38;0.95;;;;;;;22.95;49.04;92595.97;2051244;70;20138;-74
2021/06/29 07:21:31;;;;;;;1.90;1.20;;;;;;;23.12;48.53;92579.69;2050774;70;20143;-74
2021/06/29 07:23:57;;;;;;;3.08;1.20;;;;;;;23.14;49.61;92576.09;2051323;69;20241;-74
2021/06/29 07:26:23;;;;;;;2.42;1.35;;;;;;;22.97;48.02;92575.91;2051348;70;20154;-74
2021/06/29 07:28:51;;;;;;;2.15;1.00;;;;;;;22.78;47.52;92586.41;2051271;70;20492;-74
2021/06/29 07:31:17;;;;;;;1.92;1.20;;;;;;;23.12;46.79;92576.81;2051242;70;20162;-74
2021/06/29 07:33:48;;;;;;;1.23;0.90;;;;;;;22.91;46.73;92563.63;2051064;70;20153;-74
2021/06/29 07:36:15;;;;;;;1.35;1.25;;;;;;;23.20;46.81;92567.56;2051270;70;20150;-74
2021/06/29 07:38:43;;;;;;;1.38;1.17;;;;;;;23.21;47.49;92569.75;2051229;70;20545;-74
2021/06/29 07:41:09;;;;;;;1.88;1.30;;;;;;;23.32;46.18;92571.31;2051249;70;20626;-74
2021/06/29 07:43:35;;;;;;;15.38;2.67;;;;;;;23.11;46.79;92563.88;2051248;70;20218;-73
2021/06/29 07:46:01;;;;;;;3.50;1.80;;;;;;;23.25;48.45;92557.59;2051230;70;20158;-73
2021/06/29 07:48:26;;;;;;;1.33;1.23;;;;;;;23.15;48.20;92545.97;2051097;70;20154;-73
2021/06/29 07:50:53;;;;;;;4.78;1.40;;;;;;;23.58;49.56;92547.16;2051332;70;20174;-73
2021/06/29 07:53:19;;;;;;;1.55;1.27;;;;;;;23.61;47.34;92534.25;2051234;70;20142;-74
2021/06/29 07:55:44;;;;;;;1.45;1.35;;;;;;;23.86;47.29;92546.72;2051224;70;20135;-75
2021/06/29 07:58:10;;;;;;;2.45;1.55;;;;;;;23.72;45.88;92538.69;2051219;70;20158;-74
2021/06/29 08:00:36;;;;;;;4.60;1.65;;;;;;;23.44;47.15;92530.50;2051331;70;20170;-74
2021/06/29 08:03:03;;;;;;;1.90;1.40;;;;;;;23.68;47.64;92526.44;2050527;70;20165;-75
2021/06/29 08:05:30;;;;;;;1.70;1.30;;;;;;;23.97;48.11;92524.56;2051225;70;20182;-74
2021/06/29 08:07:55;;;;;;;1.70;1.10;;;;;;;24.09;45.99;92525.34;2051164;70;20591;-74
2021/06/29 08:10:21;;;;;;;1.38;1.27;;;;;;;23.68;46.54;92518.53;2051332;70;20142;-74
2021/06/29 08:12:47;;;;;;;2.58;1.30;;;;;;;23.87;46.84;92524.44;2051300;70;20253;-74
2021/06/29 08:15:14;;;;;;;2.25;1.00;;;;;;;23.66;44.42;92512.06;2051253;70;20241;-75
2021/06/29 08:17:41;;;;;;;1.77;1.02;;;;;;;24.08;46.22;92505.94;2050980;70;20674;-73
2021/06/29 08:20:08;;;;;;;1.60;1.10;;;;;;;24.14;44.00;92503.09;2051064;70;20322;-74
2021/06/29 08:22:34;;;;;;;1.88;1.30;;;;;;;24.06;45.34;92495.16;2051112;70;20232;-74
2021/06/29 08:24:59;;;;;;;2.03;1.20;;;;;;;24.34;44.41;92494.63;2051109;70;20566;-75
2021/06/29 08:27:25;;;;;;;1.33;1.20;;;;;;;24.63;45.11;92489.03;2051117;70;20224;-75
2021/06/29 08:29:53;;;;;;;1.25;1.13;;;;;;;25.18;45.13;92477.06;2051127;70;20579;-74
2021/06/29 08:32:19;;;;;;;2.40;1.20;;;;;;;25.52;43.03;92480.03;2051003;70;20169;-75
2021/06/29 08:34:45;;;;;;;3.63;1.48;;;;;;;25.54;44.56;92477.13;2051237;70;20146;-75
2021/06/29 08:37:10;;;;;;;1.70;1.25;;;;;;;25.95;43.21;92474.31;2051437;70;20282;-79
2021/06/29 08:39:36;;;;;;;3.90;1.10;;;;;;;26.58;44.39;92473.53;2052532;70;20226;-79
2021/06/29 08:42:02;;;;;;;1.20;1.10;;;;;;;26.81;41.66;92463.34;2051137;70;20217;-84
2021/06/29 08:44:28;;;;;;;1.30;0.98;;;;;;;27.55;40.51;92472.38;2051670;70;20178;-76
2021/06/29 08:46:54;;;;;;;3.05;1.10;;;;;;;27.36;39.34;92453.72;2050693;70;20237;-75
2021/06/29 08:49:19;;;;;;;2.00;1.00;;;;;;;27.83;39.02;92456.31;2051543;69;20253;-77
2021/06/29 08:51:45;;;;;;;2.03;1.02;;;;;;;28.47;39.40;92457.22;2051596;70;20633;-75
2021/06/29 08:54:14;;;;;;;2.05;1.00;;;;;;;28.35;37.22;92457.34;2051580;70;20135;-77
2021/06/29 08:56:40;;;;;;;1.45;0.90;;;;;;;28.69;38.40;92447.59;2051116;70;20221;-75
2021/06/29 08:59:05;;;;;;;1.33;0.98;;;;;;;29.24;38.44;92444.06;2051516;69;20141;-76
2021/06/29 09:01:31;;;;;;;1.00;0.90;;;;;;;29.38;37.91;92443.13;2051663;70;20506;-77
2021/06/29 09:03:58;;;;;;;3.33;1.35;;;;;;;28.73;36.94;92433.06;2051596;70;20150;-79
2021/06/29 09:06:39;;;;;;;2.83;1.30;;;;;;;29.48;36.03;92425.59;2051261;70;20173;-80
2021/06/29 09:09:25;;;;;;;1.63;1.10;;;;;;;29.55;37.04;92426.25;2051085;70;20180;-76
2021/06/29 09:11:51;;;;;;;1.38;1.10;;;;;;;30.43;35.65;92413.25;2051654;70;20589;-77
2021/06/29 09:14:17;;;;;;;1.75;1.05;;;;;;;30.09;36.43;92412.34;2051790;69;20181;-77
2021/06/29 09:16:45;;;;;;;1.45;1.10;;;;;;;30.62;34.45;92394.00;2051103;70;20590;-79
2021/06/29 09:19:11;;;;;;;1.05;1.00;;;;;;;30.80;33.59;92384.94;2051552;69;20146;-76
2021/06/29 09:21:37;;;;;;;1.23;1.00;;;;;;;30.66;34.29;92378.69;2051667;70;20522;-77
2021/06/29 09:24:04;;;;;;;0.90;0.90;;;;;;;31.29;35.25;92383.91;2051774;70;20142;-76
2021/06/29 09:26:30;;;;;;;2.20;0.90;;;;;;;30.93;34.04;92379.59;2051133;70;20161;-76
2021/06/29 09:29:01;;;;;;;1.55;1.05;;;;;;;31.27;34.15;92372.34;2051627;70;20150;-76
2021/06/29 09:31:45;;;;;;;1.35;0.90;;;;;;;31.43;33.89;92368.38;2051623;69;20137;-76
2021/06/29 09:34:12;;;;;;;1.70;1.00;;;;;;;30.85;34.87;92359.44;2051462;70;20138;-78
2021/06/29 09:36:42;;;;;;;1.98;0.80;;;;;;;31.53;33.14;92358.69;2051595;70;20131;-77
2021/06/29 09:39:12;;;;;;;1.45;1.10;;;;;;;31.41;33.53;92345.13;2051609;70;20143;-75
2021/06/29 09:41:38;;;;;;;3.85;0.90;;;;;;;31.51;32.78;92350.00;2051651;69;20189;-77
2021/06/29 09:44:10;;;;;;;0.93;0.88;;;;;;;31.63;29.76;92352.63;2051577;70;20150;-74
2021/06/29 09:46:39;;;;;;;2.78;1.08;;;;;;;32.01;30.99;92338.63;2051535;70;20142;-75
2021/06/29 09:49:13;;;;;;;1.58;0.93;;;;;;;31.38;29.49;92335.75;2051396;70;20150;-75
2021/06/29 09:51:41;;;;;;;2.85;0.90;;;;;;;30.68;31.13;92318.34;2051532;70;20146;-75
2021/06/29 09:54:10;;;;;;;1.27;1.00;;;;;;;30.55;31.15;92323.69;2051563;70;20601;-74
2021/06/29 09:56:41;;;;;;;1.85;1.10;;;;;;;31.05;30.73;92314.66;2051823;70;20182;-73
2021/06/29 09:59:15;;;;;;;3.13;1.00;;;;;;;30.99;32.78;92303.91;2053914;69;20166;-74
2021/06/29 10:01:42;;;;;;;1.20;1.00;;;;;;;32.04;33.04;92314.53;2053415;70;20173;-74
2021/06/29 10:04:08;;;;;;;4.50;0.90;;;;;;;32.03;33.40;92297.84;2053783;69;20233;-75
2021/06/29 10:06:37;;;;;;;1.85;1.65;;;;;;;32.64;32.67;92296.88;2054645;69;20138;-74
2021/06/29 10:09:09;;;;;;;1.92;1.10;;;;;;;32.57;31.21;92303.66;2054686;69;20199;-74
2021/06/29 10:11:37;;;;;;;1.50;1.05;;;;;;;33.14;30.24;92293.28;2054710;69;20145;-75
2021/06/29 10:14:06;;;;;;;1.83;1.00;;;;;;;33.24;29.32;92278.38;2055069;69;20182;-75
2021/06/29 10:16:34;;;;;;;1.20;1.05;;;;;;;32.20;30.02;92287.16;2054729;69;20221;-75
2021/06/29 10:21:54;;;;;;;2.60;1.17;;;;;;;33.13;29.43;92277.97;2050749;70;20146;-75
2021/06/29 10:24:24;;;;;;;1.40;1.00;;;;;;;33.12;29.37;92256.13;2054303;69;20145;-75
2021/06/29 10:26:53;;;;;;;3.58;1.00;;;;;;;32.74;29.50;92251.44;2054453;69;20138;-76
2021/06/29 10:29:21;;;;;;;1.45;1.00;;;;;;;32.36;29.47;92248.88;2054689;69;20169;-77
2021/06/29 10:31:52;;;;;;;1.73;1.20;;;;;;;33.62;29.94;92241.41;2054773;69;20165;-77
2021/06/29 10:34:24;;;;;;;1.75;1.08;;;;;;;33.52;29.47;92241.06;2054626;69;20150;-79
2021/06/29 10:36:52;;;;;;;1.38;1.00;;;;;;;34.75;28.67;92228.75;2054754;69;20252;-79
2021/06/29 10:39:24;;;;;;;1.50;1.20;;;;;;;34.54;26.47;92220.72;2054491;69;20212;-79
2021/06/29 10:42:06;;;;;;;2.83;1.30;;;;;;;34.59;27.47;92209.59;2054158;69;20228;-78
2021/06/29 10:44:41;;;;;;;1.67;0.93;;;;;;;35.75;27.85;92207.25;2054704;69;20153;-75
2021/06/29 10:47:25;;;;;;;1.58;0.98;;;;;;;36.30;26.46;92202.69;2054607;69;20153;-76
2021/06/29 10:49:56;;;;;;;2.47;0.90;;;;;;;36.52;26.15;92197.34;2054197;69;20173;-76
2021/06/29 10:52:28;;;;;;;4.10;1.10;;;;;;;34.71;27.59;92185.06;2054639;69;20134;-75
2021/06/29 10:55:27;;;;;;;1.88;1.10;;;;;;;36.47;26.29;92175.59;2054561;69;20145;-77
2021/06/29 10:57:58;;;;;;;1.30;0.90;;;;;;;37.41;24.32;92177.13;2054620;69;20150;-76
2021/06/29 11:00:34;;;;;;;2.10;1.10;;;;;;;37.29;25.87;92173.22;2054573;69;20146;-77
2021/06/29 11:03:09;;;;;;;2.33;1.10;;;;;;;35.87;25.19;92157.66;2054418;69;20253;-77
2021/06/29 11:05:44;;;;;;;4.15;1.17;;;;;;;37.68;25.07;92161.84;2054620;69;20146;-76
2021/06/29 11:08:20;;;;;;;2.30;1.05;;;;;;;39.07;24.63;92153.00;2054520;69;20513;-76
2021/06/29 11:10:49;;;;;;;2.78;1.02;;;;;;;40.39;20.90;92146.88;2054371;69;20173;-76
2021/06/29 11:13:17;;;;;;;3.17;1.00;;;;;;;41.01;22.28;92144.53;2054532;69;20138;-75
2021/06/29 11:15:54;;;;;;;1.73;1.02;;;;;;;42.18;20.83;92140.56;2054552;69;20150;-76
2021/06/29 11:18:38;;;;;;;4.28;1.30;;;;;;;43.62;17.49;92134.84;2054509;69;20150;-75
2021/06/29 11:21:08;;;;;;;3.47;0.93;;;;;;;42.16;19.14;92125.22;2053151;69;20196;-76
2021/06/29 11:23:38;;;;;;;3.70;1.17;;;;;;;45.45;16.99;92131.88;2053436;69;20150;-75
2021/06/29 11:26:12;;;;;;;3.70;1.10;;;;;;;42.97;17.56;92130.69;2054182;69;20153;-74
2021/06/29 11:28:43;;;;;;;2.95;1.15;;;;;;;43.70;17.76;92121.69;2054008;69;20177;-75
2021/06/29 11:31:18;;;;;;;;;;;;;;;44.48;17.87;92110.59;2054248;69;20173;-77
2021/06/29 11:33:45;;;;;;;4.15;1.33;;;;;;;46.04;16.82;92096.56;2054424;69;20070;-77
2021/06/29 11:36:23;;;;;;;5.88;1.20;;;;;;;46.09;17.73;92091.66;2054282;69;20230;-76